Radar AviationWeather DUATS TFRs Wunderground Accuweather Weather.com

alt : Radar

TAFs

KDTW 280520Z 2806/0112 16006KT P6SM SCT100 BKN200
   FM280900 15005KT 5SM BR BKN100
   FM281200 13010KT 2SM -SHRA BR OVC015
   FM281500 15010KT 3SM -DZ BR OVC015
   FM281800 17010KT P6SM BKN015 OVC025
   FM010000 18012KT 5SM SHRA BR OVC008
   FM010600 20014G20KT 3SM SHRA BR OVC004
KTOL 280317Z 2803/2824 15006KT P6SM SCT050 BKN120
   FM281000 13006KT 6SM -SHRA OVC050
   FM281200 15006KT 3SM -SHRA BR OVC020
   FM281500 18012KT P6SM OVC015
KFDY 280313Z 2803/2824 15008KT P6SM BKN150
   FM280900 15008KT 6SM -SHRA OVC050
   FM281100 15010KT 4SM -SHRA BR OVC025
   FM281600 18015G22KT P6SM OVC018
KCLE 280312Z 2803/0106 16006KT P6SM SCT050 BKN150
   FM281300 16008KT 5SM -SHRA OVC050
   FM281500 18010KT 5SM -SHRA OVC025
   FM281900 18015G22KT P6SM VCSH OVC018
KJXN 272349Z 2800/2824 17007KT P6SM BKN060
   FM280600 16006KT P6SM BKN035
   FM281000 15008KT 5SM -SHRA BR OVC030
   FM281200 16010KT 3SM -SHRA BR OVC015
   FM281700 18011KT 5SM BR OVC008
KFWA 272320Z 2800/2824 17006KT P6SM BKN070
   FM281100 15008KT 5SM -SHRA OVC060
   FM281300 16009KT 4SM -SHRA OVC010
   FM281800 19011KT P6SM OVC015

METARs

KDUH 280513Z AUTO 00000KT 7SM CLR 04/02 A3020 RMK AO2 T00410022
KJXN 280456Z AUTO 17006KT 10SM CLR 03/01 A3016 RMK AO2 SLP219 T00330006 401110011
KFWA 280454Z 12008KT 6SM BR BKN250 04/03 A3014 RMK AO2 SLP213 T00440033 401061022
KDTW 280453Z 15006KT 7SM FEW055 SCT180 04/03 A3021 RMK AO2 SLP232 T00440028 401111011
KFDY 280453Z AUTO 14005KT 8SM FEW060 06/03 A3018 RMK AO2 SLP220 T00560033 401110000
KTDZ 280453Z AUTO 17005KT 6SM BR BKN049 BKN060 03/03 A3021 RMK AO2 SLP233 T00330028 401061006
KTOL 280452Z 16004KT 8SM FEW047 03/03 A3019 RMK AO2 SLP226 T00330033 400941011
KCLE 280451Z 18007KT 10SM SCT050 SCT080 OVC250 06/02 A3025 RMK AO2 SLP246 T00610022 401000022

alt : Satellite

alt : TFRs